Time;durP1;ratioP1;P1;durP2;ratioP2;P2;SDS_P1;SDS_P2;PMS_P1;PMS_P2;Temp;Humidity;BMP_temperature;BMP_pressure;BME280_temperature;BME280_humidity;BME280_pressure;Samples;Min_cycle;Max_cycle;Signal;HPM_P1;HPM_P2
2023/05/03 00:00:12;;;;;;;3.92;1.60;;;7.50;99.90;;;;;;5136944;27;20054;-73
2023/05/03 00:02:39;;;;;;;2.65;1.20;;;7.40;99.90;;;;;;5155418;27;20121;-73
2023/05/03 00:05:08;;;;;;;4.25;1.77;;;7.40;99.90;;;;;;5136443;27;20596;-74
2023/05/03 00:07:34;;;;;;;2.90;1.40;;;7.30;99.90;;;;;;5153531;27;20043;-73
2023/05/03 00:10:00;;;;;;;3.92;1.58;;;7.20;99.90;;;;;;5155555;27;20050;-73
2023/05/03 00:12:25;;;;;;;3.00;1.55;;;7.20;99.90;;;;;;5118721;27;20400;-73
2023/05/03 00:14:51;;;;;;;2.35;1.33;;;7.20;99.90;;;;;;5134858;27;20051;-73
2023/05/03 00:17:17;;;;;;;6.70;2.38;;;7.10;99.90;;;;;;5134242;27;20043;-73
2023/05/03 00:19:42;;;;;;;2.72;1.50;;;7.10;99.90;;;;;;5135043;27;20510;-73
2023/05/03 00:22:08;;;;;;;4.25;2.00;;;7.10;99.90;;;;;;5143965;27;20556;-73
2023/05/03 00:24:34;;;;;;;4.00;1.98;;;7.10;99.90;;;;;;5116876;27;20059;-73
2023/05/03 00:27:00;;;;;;;;;;;7.10;99.90;;;;;;5134064;27;20051;-73
2023/05/03 00:29:26;;;;;;;1.63;1.20;;;7.00;99.90;;;;;;5135021;27;19944;-73
2023/05/03 00:31:52;;;;;;;3.47;1.45;;;7.00;99.90;;;;;;5116525;27;20051;-73
2023/05/03 00:34:17;;;;;;;5.32;2.03;;;6.90;99.90;;;;;;5133968;27;20047;-73
2023/05/03 00:36:43;;;;;;;4.35;1.70;;;7.00;99.90;;;;;;5136036;27;20134;-73
2023/05/03 00:39:09;;;;;;;3.17;1.60;;;7.00;99.90;;;;;;5147537;27;20063;-73
2023/05/03 00:41:35;;;;;;;2.83;1.42;;;6.90;99.90;;;;;;5147408;27;20412;-72
2023/05/03 00:44:00;;;;;;;5.68;1.50;;;6.90;99.90;;;;;;5133959;27;20047;-73
2023/05/03 00:46:26;;;;;;;2.78;1.35;;;6.90;99.90;;;;;;5134547;27;20503;-73
2023/05/03 00:48:52;;;;;;;4.93;1.80;;;6.80;99.90;;;;;;5134799;27;20059;-73
2023/05/03 00:51:19;;;;;;;2.28;1.55;;;6.90;99.90;;;;;;5154085;27;20555;-73
2023/05/03 00:53:45;;;;;;;6.25;2.42;;;6.80;99.90;;;;;;5154979;27;20110;-72
2023/05/03 00:56:14;;;;;;;2.15;1.40;;;6.80;99.90;;;;;;5150773;27;20034;-73
2023/05/03 00:58:40;;;;;;;3.03;1.63;;;6.80;99.90;;;;;;5127122;27;20112;-73
2023/05/03 01:01:06;;;;;;;3.60;1.75;;;6.70;99.90;;;;;;5133854;27;20471;-73
2023/05/03 01:03:35;;;;;;;5.82;1.77;;;6.70;99.90;;;;;;5098450;27;20054;-72
2023/05/03 01:06:27;;;;;;;1.42;1.33;;;6.60;99.90;;;;;;5114843;27;20059;-75
2023/05/03 01:09:13;;;;;;;3.08;1.58;;;6.60;99.90;;;;;;5115903;27;20494;-73
2023/05/03 01:12:14;;;;;;;3.65;1.77;;;6.60;99.90;;;;;;5133240;27;20103;-73
2023/05/03 01:15:03;;;;;;;3.92;2.00;;;6.60;99.90;;;;;;5134217;27;20123;-73
2023/05/03 01:17:38;;;;;;;5.03;1.98;;;6.50;99.90;;;;;;5134899;27;20099;-73
2023/05/03 01:20:10;;;;;;;6.18;2.00;;;6.50;99.90;;;;;;5133186;27;20558;-75
2023/05/03 01:22:56;;;;;;;7.57;1.88;;;6.40;99.90;;;;;;5147035;27;20127;-72
2023/05/03 01:25:22;;;;;;;7.68;1.70;;;6.30;99.90;;;;;;5153793;27;20219;-73
2023/05/03 01:27:48;;;;;;;3.53;1.65;;;6.40;99.90;;;;;;5153884;27;20522;-73
2023/05/03 01:30:15;;;;;;;6.43;1.95;;;6.30;99.90;;;;;;5153994;27;20051;-72
2023/05/03 01:32:59;;;;;;;;;;;6.30;99.90;;;;;;5138301;27;20086;-72
2023/05/03 01:35:43;;;;;;;2.78;1.67;;;6.30;99.90;;;;;;5132471;27;20020;-72
2023/05/03 01:38:09;;;;;;;2.88;1.40;;;6.40;99.90;;;;;;5133055;27;20404;-73
2023/05/03 01:40:39;;;;;;;;;;;6.40;99.90;;;;;;5146547;27;20054;-74
2023/05/03 01:43:06;;;;;;;2.17;1.70;;;6.40;99.90;;;;;;5152682;27;20010;-76
2023/05/03 01:45:32;;;;;;;2.88;1.67;;;6.40;99.90;;;;;;5135516;27;20054;-73
2023/05/03 01:47:58;;;;;;;4.95;1.60;;;6.40;99.90;;;;;;5125090;27;20055;-73
2023/05/03 01:50:24;;;;;;;3.67;1.70;;;6.30;99.90;;;;;;5132299;27;20051;-73
2023/05/03 01:52:51;;;;;;;3.92;1.38;;;6.30;99.90;;;;;;5114642;27;20047;-73
2023/05/03 01:55:17;;;;;;;3.72;1.95;;;6.30;99.90;;;;;;5132709;27;20054;-72
2023/05/03 01:57:43;;;;;;;5.30;1.77;;;6.30;99.90;;;;;;5151927;27;20078;-73
2023/05/03 02:00:09;;;;;;;2.72;1.63;;;6.30;99.90;;;;;;5135310;27;20158;-73
2023/05/03 02:02:35;;;;;;;3.72;1.80;;;6.20;99.90;;;;;;5131664;27;20039;-73
2023/05/03 02:05:02;;;;;;;5.20;1.90;;;6.30;99.90;;;;;;5133190;27;20046;-72
2023/05/03 02:07:27;;;;;;;4.35;1.85;;;6.40;99.90;;;;;;5131143;27;20051;-72
2023/05/03 02:09:53;;;;;;;3.63;1.90;;;6.30;99.90;;;;;;5134058;27;20047;-73
2023/05/03 02:12:18;;;;;;;5.18;1.80;;;6.20;99.90;;;;;;5131363;27;20043;-73
2023/05/03 02:14:44;;;;;;;4.50;2.00;;;6.20;99.90;;;;;;5133040;27;20062;-73
2023/05/03 02:17:10;;;;;;;5.80;2.15;;;6.20;99.90;;;;;;5132505;27;20075;-73
2023/05/03 02:19:36;;;;;;;4.47;1.73;;;6.20;99.90;;;;;;5153675;27;20458;-73
2023/05/03 02:22:02;;;;;;;4.60;1.83;;;6.20;99.90;;;;;;5152890;27;20134;-73
2023/05/03 02:24:28;;;;;;;4.22;2.05;;;6.10;99.90;;;;;;5121159;27;20608;-72
2023/05/03 02:26:54;;;;;;;2.53;2.00;;;6.00;99.90;;;;;;5117143;27;20050;-72
2023/05/03 02:29:20;;;;;;;3.60;2.00;;;6.00;99.90;;;;;;5152904;27;20194;-72
2023/05/03 02:31:45;;;;;;;2.55;1.60;;;6.00;99.90;;;;;;5153481;27;20555;-72
2023/05/03 02:34:11;;;;;;;3.53;1.60;;;5.90;99.90;;;;;;5152589;27;20047;-73
2023/05/03 02:36:38;;;;;;;3.22;1.67;;;5.90;99.90;;;;;;5151177;27;20039;-72
2023/05/03 02:39:04;;;;;;;11.95;1.80;;;5.80;99.90;;;;;;5152882;27;20047;-73
2023/05/03 02:41:29;;;;;;;3.78;1.73;;;5.80;99.90;;;;;;5151782;27;20099;-73
2023/05/03 02:43:55;;;;;;;6.22;1.80;;;5.80;99.90;;;;;;5153363;27;20039;-73
2023/05/03 02:46:20;;;;;;;5.35;2.00;;;5.80;99.90;;;;;;5148950;27;20038;-73
2023/05/03 02:48:46;;;;;;;3.80;2.03;;;5.80;99.90;;;;;;5151986;27;20070;-74
2023/05/03 02:51:12;;;;;;;6.68;2.97;;;5.80;99.90;;;;;;5150752;27;20051;-72
2023/05/03 02:53:38;;;;;;;4.63;2.47;;;5.80;99.90;;;;;;5131781;27;20551;-73
2023/05/03 02:56:04;;;;;;;6.00;2.25;;;5.80;99.90;;;;;;5112973;27;20126;-73
2023/05/03 02:58:30;;;;;;;;;;;5.80;99.90;;;;;;5114032;27;20285;-72
2023/05/03 03:00:56;;;;;;;3.25;2.00;;;5.70;99.90;;;;;;5132002;27;19919;-73
2023/05/03 03:03:21;;;;;;;6.40;1.92;;;5.70;99.90;;;;;;5131174;27;20050;-72
2023/05/03 03:05:47;;;;;;;3.63;2.00;;;5.60;99.90;;;;;;5113158;27;20043;-72
2023/05/03 03:08:13;;;;;;;3.95;1.67;;;5.60;99.90;;;;;;5133121;27;20063;-73
2023/05/03 03:10:38;;;;;;;2.40;1.70;;;5.50;99.90;;;;;;5150624;27;20578;-73
2023/05/03 03:13:04;;;;;;;8.73;2.20;;;5.50;99.90;;;;;;5134155;27;20054;-72
2023/05/03 03:15:30;;;;;;;3.75;2.10;;;5.50;99.90;;;;;;5152059;27;20038;-72
2023/05/03 03:17:57;;;;;;;3.05;1.85;;;5.50;99.90;;;;;;5116624;27;20057;-73
2023/05/03 03:20:23;;;;;;;5.22;2.08;;;5.50;99.90;;;;;;5133171;27;20096;-73
2023/05/03 03:22:48;;;;;;;2.95;1.70;;;5.60;99.90;;;;;;5101671;27;20043;-72
2023/05/03 03:25:14;;;;;;;2.28;1.83;;;5.60;99.90;;;;;;5131135;27;20062;-74
2023/05/03 03:27:40;;;;;;;4.50;1.70;;;5.70;99.90;;;;;;5130930;27;20058;-73
2023/05/03 03:30:08;;;;;;;4.18;1.90;;;5.60;99.90;;;;;;5134182;27;20338;-73
2023/05/03 03:32:34;;;;;;;4.22;1.95;;;5.50;99.90;;;;;;5151517;27;20743;-72
2023/05/03 03:35:00;;;;;;;3.28;2.00;;;5.50;99.90;;;;;;5152268;27;20082;-73
2023/05/03 03:37:25;;;;;;;8.50;1.92;;;5.40;99.90;;;;;;5149533;27;20125;-73
2023/05/03 03:39:52;;;;;;;3.97;1.98;;;5.50;99.90;;;;;;5148786;27;20200;-73
2023/05/03 03:42:19;;;;;;;2.92;2.05;;;5.40;99.90;;;;;;5127596;27;20043;-73
2023/05/03 03:44:45;;;;;;;6.38;1.70;;;5.40;99.90;;;;;;5133418;27;20400;-72
2023/05/03 03:47:10;;;;;;;5.68;1.88;;;5.40;99.90;;;;;;5151471;27;20047;-73
2023/05/03 03:49:36;;;;;;;2.05;1.58;;;5.30;99.90;;;;;;5151749;27;20051;-73
2023/05/03 03:52:02;;;;;;;7.38;1.83;;;5.20;99.90;;;;;;5133243;27;20045;-73
2023/05/03 03:54:28;;;;;;;5.97;2.15;;;5.20;99.90;;;;;;5151582;27;20047;-73
2023/05/03 03:56:53;;;;;;;2.78;1.67;;;5.10;99.90;;;;;;5116078;27;20054;-73
2023/05/03 03:59:19;;;;;;;4.18;2.35;;;5.10;99.90;;;;;;5133162;27;20071;-73
2023/05/03 04:01:45;;;;;;;4.05;1.95;;;5.20;99.90;;;;;;5137327;27;20050;-72
2023/05/03 04:04:10;;;;;;;4.55;2.03;;;5.20;99.90;;;;;;5151614;27;20471;-73
2023/05/03 04:06:36;;;;;;;3.83;1.92;;;5.20;99.90;;;;;;5132499;27;20043;-72
2023/05/03 04:09:02;;;;;;;3.65;1.75;;;5.20;99.90;;;;;;5139718;27;20142;-73
2023/05/03 04:11:27;;;;;;;2.65;1.65;;;5.20;99.90;;;;;;5129841;28;20043;-72
2023/05/03 04:13:53;;;;;;;4.95;1.75;;;5.30;99.90;;;;;;5131110;28;20047;-73
2023/05/03 04:16:19;;;;;;;2.63;1.90;;;5.40;99.90;;;;;;5131086;28;20043;-75
2023/05/03 04:18:45;;;;;;;4.05;2.03;;;5.30;99.90;;;;;;5125133;27;20041;-73
2023/05/03 04:21:10;;;;;;;2.03;1.50;;;5.30;99.90;;;;;;5150300;27;20093;-73
2023/05/03 04:23:37;;;;;;;2.42;1.70;;;5.40;99.90;;;;;;5143934;27;20091;-73
2023/05/03 04:26:02;;;;;;;;;;;5.50;99.90;;;;;;5133099;27;20043;-73
2023/05/03 04:28:28;;;;;;;4.53;1.73;;;5.40;99.90;;;;;;5132995;27;20386;-74
2023/05/03 04:30:57;;;;;;;3.90;2.05;;;5.40;99.90;;;;;;5151869;27;20638;-72
2023/05/03 04:33:25;;;;;;;7.32;2.22;;;5.40;99.90;;;;;;5147291;27;20089;-72
2023/05/03 04:35:51;;;;;;;2.85;1.67;;;5.40;99.90;;;;;;5112333;28;20078;-73
2023/05/03 04:38:18;;;;;;;3.92;1.83;;;5.40;99.90;;;;;;5131079;28;20101;-74
2023/05/03 04:40:45;;;;;;;5.93;1.95;;;5.30;99.90;;;;;;5149245;27;20566;-72
2023/05/03 04:43:11;;;;;;;6.15;2.10;;;5.30;99.90;;;;;;5135719;27;20039;-73
2023/05/03 04:45:38;;;;;;;3.17;1.90;;;5.30;99.90;;;;;;5133554;27;20507;-72
2023/05/03 04:48:04;;;;;;;8.57;2.13;;;5.50;99.90;;;;;;5141172;27;20065;-73
2023/05/03 04:50:33;;;;;;;;;;;5.40;99.90;;;;;;5154691;27;20055;-73
2023/05/03 04:52:58;;;;;;;5.03;2.20;;;5.50;99.90;;;;;;5155323;27;20370;-73
2023/05/03 04:55:24;;;;;;;6.07;2.42;;;5.60;99.90;;;;;;5154160;27;20046;-74
2023/05/03 04:57:50;;;;;;;6.93;2.00;;;5.60;99.90;;;;;;5144590;27;20059;-73
2023/05/03 05:00:16;;;;;;;3.60;2.10;;;5.70;99.90;;;;;;5116045;27;20499;-73
2023/05/03 05:02:42;;;;;;;4.57;2.13;;;5.70;99.90;;;;;;5133266;27;20222;-73
2023/05/03 05:05:09;;;;;;;4.82;2.00;;;5.80;99.90;;;;;;5114566;27;20043;-73
2023/05/03 05:07:35;;;;;;;4.13;2.13;;;5.90;99.90;;;;;;5137719;27;20577;-73
2023/05/03 05:10:01;;;;;;;5.35;2.00;;;5.90;99.90;;;;;;5145472;27;20054;-73
2023/05/03 05:12:28;;;;;;;4.68;1.92;;;6.00;99.90;;;;;;5148552;27;20093;-73
2023/05/03 05:14:53;;;;;;;4.43;2.38;;;6.00;99.90;;;;;;5152042;27;20043;-72
2023/05/03 05:17:20;;;;;;;5.85;2.28;;;6.10;99.90;;;;;;5133512;27;20139;-73
2023/05/03 05:19:46;;;;;;;4.75;2.10;;;6.20;99.90;;;;;;5133545;27;20043;-72
2023/05/03 05:22:12;;;;;;;10.13;2.55;;;6.20;99.90;;;;;;5144049;27;20068;-73
2023/05/03 05:24:37;;;;;;;3.55;2.03;;;6.30;99.90;;;;;;5114939;27;20500;-73
2023/05/03 05:27:03;;;;;;;3.30;2.10;;;6.30;99.90;;;;;;5114776;27;20484;-73
2023/05/03 05:29:29;;;;;;;3.28;2.47;;;6.30;99.90;;;;;;5133464;27;20053;-73
2023/05/03 05:31:55;;;;;;;4.75;1.88;;;6.30;99.90;;;;;;5115630;27;20476;-73
2023/05/03 05:34:21;;;;;;;3.47;2.22;;;6.30;99.90;;;;;;5147915;27;20057;-73
2023/05/03 05:36:46;;;;;;;9.55;2.38;;;6.30;99.90;;;;;;5135017;27;20110;-73
2023/05/03 05:39:12;;;;;;;9.52;2.28;;;6.30;99.90;;;;;;5122905;27;20061;-73
2023/05/03 05:41:38;;;;;;;5.45;2.60;;;6.30;99.90;;;;;;5134649;27;20085;-72
2023/05/03 05:44:04;;;;;;;4.57;2.10;;;6.20;99.90;;;;;;5154219;27;20134;-73
2023/05/03 05:46:29;;;;;;;8.68;2.35;;;6.30;99.90;;;;;;5140964;27;20075;-73
2023/05/03 05:48:55;;;;;;;6.40;2.33;;;6.40;99.90;;;;;;5132553;27;20055;-72
2023/05/03 05:51:21;;;;;;;3.50;2.00;;;6.50;99.90;;;;;;5113517;28;20108;-73
2023/05/03 05:53:46;;;;;;;7.45;3.05;;;6.50;99.90;;;;;;5132654;27;20118;-73
2023/05/03 05:56:12;;;;;;;4.50;2.33;;;6.60;99.90;;;;;;5118501;27;20074;-73
2023/05/03 05:58:38;;;;;;;5.85;2.70;;;6.70;99.90;;;;;;5135173;27;20480;-73
2023/05/03 06:01:04;;;;;;;4.25;2.20;;;6.70;99.90;;;;;;5117580;27;20045;-73
2023/05/03 06:03:31;;;;;;;12.18;3.15;;;6.80;99.90;;;;;;5152459;27;20107;-76
2023/05/03 06:05:57;;;;;;;13.52;3.38;;;6.80;99.90;;;;;;5132884;27;20121;-75
2023/05/03 06:08:22;;;;;;;7.63;2.40;;;6.90;99.90;;;;;;5097899;27;20055;-73
2023/05/03 06:10:48;;;;;;;13.10;3.15;;;6.90;99.90;;;;;;5120937;27;20579;-73
2023/05/03 06:13:14;;;;;;;9.07;2.60;;;6.90;99.90;;;;;;5132827;27;20035;-74
2023/05/03 06:15:40;;;;;;;14.27;3.00;;;6.90;99.90;;;;;;5126881;27;20050;-73
2023/05/03 06:18:06;;;;;;;8.57;2.33;;;7.00;99.90;;;;;;5132436;27;20472;-73
2023/05/03 06:20:32;;;;;;;5.88;2.50;;;7.10;99.90;;;;;;5132856;27;20134;-75
2023/05/03 06:22:57;;;;;;;5.00;2.33;;;7.10;99.90;;;;;;5132851;27;20046;-73
2023/05/03 06:25:23;;;;;;;6.47;2.60;;;7.20;99.90;;;;;;5132029;27;20383;-74
2023/05/03 06:27:49;;;;;;;8.48;2.60;;;7.20;99.90;;;;;;5134074;27;20107;-74
2023/05/03 06:30:15;;;;;;;8.07;2.47;;;7.30;99.90;;;;;;5133522;27;20078;-73
2023/05/03 06:32:41;;;;;;;10.05;2.90;;;7.40;99.90;;;;;;5131733;27;20165;-73
2023/05/03 06:35:08;;;;;;;6.22;2.47;;;7.50;99.90;;;;;;5124760;27;20133;-74
2023/05/03 06:37:34;;;;;;;5.32;2.50;;;7.60;99.90;;;;;;5152473;27;20046;-76
2023/05/03 06:40:00;;;;;;;8.55;2.92;;;7.70;99.90;;;;;;5143029;27;20042;-74
2023/05/03 06:42:26;;;;;;;6.22;2.60;;;7.80;99.90;;;;;;5138774;27;20039;-73
2023/05/03 06:44:52;;;;;;;5.40;2.85;;;7.80;99.90;;;;;;5131867;27;20247;-73
2023/05/03 06:47:19;;;;;;;5.05;2.72;;;7.90;99.90;;;;;;5135534;27;20047;-73
2023/05/03 06:49:45;;;;;;;5.45;2.70;;;8.00;99.90;;;;;;5131704;27;20069;-73
2023/05/03 06:52:11;;;;;;;7.28;2.50;;;8.10;99.90;;;;;;5131924;27;20039;-73
2023/05/03 06:54:36;;;;;;;4.70;2.13;;;8.30;99.90;;;;;;5131565;27;20035;-73
2023/05/03 06:57:03;;;;;;;6.85;2.83;;;8.30;99.90;;;;;;5113204;27;20054;-74
2023/05/03 06:59:29;;;;;;;6.20;3.08;;;8.40;99.90;;;;;;5148718;27;20039;-73
2023/05/03 07:01:55;;;;;;;5.82;2.33;;;8.50;99.90;;;;;;5132685;27;20099;-77
2023/05/03 07:04:20;;;;;;;4.25;2.20;;;8.60;99.90;;;;;;5133191;27;20485;-73
2023/05/03 07:06:46;;;;;;;4.93;2.67;;;8.80;99.90;;;;;;5147903;27;20056;-73
2023/05/03 07:09:12;;;;;;;5.75;2.70;;;8.80;99.90;;;;;;5136249;27;20078;-74
2023/05/03 07:11:43;;;;;;;;;;;8.80;99.90;;;;;;5139798;27;20074;-76
2023/05/03 07:14:09;;;;;;;6.28;2.53;;;8.90;99.90;;;;;;5116742;27;20002;-74
2023/05/03 07:16:34;;;;;;;6.47;2.42;;;9.00;99.90;;;;;;5134308;27;20039;-74
2023/05/03 07:19:00;;;;;;;4.93;2.72;;;9.00;99.90;;;;;;5149920;27;20051;-75
2023/05/03 07:21:26;;;;;;;6.10;2.65;;;9.00;99.90;;;;;;5138417;27;20071;-76
2023/05/03 07:23:52;;;;;;;;;;;9.10;99.90;;;;;;5117599;27;20094;-73
2023/05/03 07:26:17;;;;;;;5.55;2.42;;;9.10;99.90;;;;;;5108263;28;20424;-75
2023/05/03 07:28:43;;;;;;;5.38;2.10;;;9.20;99.90;;;;;;5124808;27;20045;-74
2023/05/03 07:31:09;;;;;;;10.02;2.33;;;9.20;99.90;;;;;;5129698;27;20408;-74
2023/05/03 07:33:36;;;;;;;7.18;2.08;;;9.30;99.90;;;;;;5146845;27;20046;-73
2023/05/03 07:36:03;;;;;;;5.00;1.70;;;9.30;99.90;;;;;;5121037;27;20086;-75
2023/05/03 07:38:28;;;;;;;4.30;1.67;;;9.40;99.90;;;;;;5138701;27;20480;-73
2023/05/03 07:40:54;;;;;;;4.07;1.42;;;9.60;99.90;;;;;;5129073;27;20054;-74
2023/05/03 07:43:22;;;;;;;8.07;2.38;;;9.70;99.90;;;;;;5130912;27;20138;-72
2023/05/03 07:45:48;;;;;;;3.00;1.50;;;9.80;99.90;;;;;;5134672;27;20122;-71
2023/05/03 07:48:14;;;;;;;5.50;1.80;;;9.90;99.90;;;;;;5120866;28;20129;-74
2023/05/03 07:50:44;;;;;;;3.65;1.60;;;10.00;99.90;;;;;;5103906;27;20043;-77
2023/05/03 07:53:11;;;;;;;4.45;1.40;;;10.00;99.90;;;;;;5141373;27;20046;-72
2023/05/03 07:55:37;;;;;;;5.38;1.40;;;10.10;99.90;;;;;;5142039;27;20043;-73
2023/05/03 07:58:03;;;;;;;5.32;1.70;;;10.20;99.90;;;;;;5130271;27;20658;-74
2023/05/03 08:00:29;;;;;;;5.18;1.40;;;10.20;99.90;;;;;;5143549;27;20175;-73
2023/05/03 08:02:56;;;;;;;2.47;1.52;;;10.30;99.90;;;;;;5126737;28;20051;-73
2023/05/03 08:05:22;;;;;;;1.77;1.25;;;10.30;99.90;;;;;;5143199;27;20057;-73
2023/05/03 08:07:48;;;;;;;;;;;10.40;99.90;;;;;;5145698;27;20043;-73
2023/05/03 08:10:14;;;;;;;3.50;1.90;;;10.50;99.90;;;;;;5131076;27;19963;-73
2023/05/03 08:12:40;;;;;;;1.48;1.30;;;10.50;99.90;;;;;;5145189;27;20032;-73
2023/05/03 08:15:06;;;;;;;;;;;10.70;99.90;;;;;;5152556;27;20099;-74
2023/05/03 08:17:38;;;;;;;3.67;1.73;;;10.70;99.90;;;;;;5154164;27;19923;-74
2023/05/03 08:20:06;;;;;;;1.77;1.50;;;10.80;99.90;;;;;;5122616;27;20050;-74
2023/05/03 08:22:32;;;;;;;3.30;1.30;;;10.80;99.90;;;;;;5141080;27;20050;-74
2023/05/03 08:25:00;;;;;;;3.92;1.50;;;10.80;99.90;;;;;;5140692;27;20131;-73
2023/05/03 08:27:27;;;;;;;6.03;1.70;;;10.80;99.90;;;;;;5123154;27;20117;-74
2023/05/03 08:29:53;;;;;;;3.55;1.42;;;10.80;99.90;;;;;;5121978;27;20103;-73
2023/05/03 08:32:20;;;;;;;2.63;1.58;;;10.90;99.90;;;;;;5134137;27;20508;-73
2023/05/03 08:34:46;;;;;;;3.33;1.83;;;10.90;99.90;;;;;;5116424;27;20119;-75
2023/05/03 08:37:11;;;;;;;7.40;2.15;;;11.00;99.90;;;;;;5147158;27;20089;-77
2023/05/03 08:39:37;;;;;;;2.08;1.50;;;11.10;99.90;;;;;;5134295;27;20035;-73
2023/05/03 08:42:07;;;;;;;4.78;2.22;;;11.10;99.90;;;;;;5133245;27;20126;-72
2023/05/03 08:44:36;;;;;;;5.80;1.70;;;11.10;99.90;;;;;;5115922;27;20058;-74
2023/05/03 08:47:05;;;;;;;3.95;1.58;;;11.00;99.90;;;;;;5133435;27;20076;-72
2023/05/03 08:49:34;;;;;;;3.83;1.50;;;11.00;99.90;;;;;;5134120;27;20074;-73
2023/05/03 08:52:01;;;;;;;3.22;1.40;;;10.90;99.90;;;;;;5120288;27;20038;-72
2023/05/03 08:54:26;;;;;;;2.47;1.55;;;10.80;99.90;;;;;;5139894;27;20065;-76
2023/05/03 08:56:52;;;;;;;3.55;1.85;;;10.80;99.90;;;;;;5133092;27;20484;-73
2023/05/03 08:59:18;;;;;;;1.30;1.20;;;10.80;99.90;;;;;;5113202;27;20507;-73
2023/05/03 09:01:44;;;;;;;3.80;1.60;;;10.80;99.90;;;;;;5139760;27;20047;-73
2023/05/03 09:04:11;;;;;;;4.65;1.52;;;10.70;99.90;;;;;;5124031;27;20179;-72
2023/05/03 09:06:37;;;;;;;5.70;2.00;;;10.70;99.90;;;;;;5145404;27;20045;-73
2023/05/03 09:09:06;;;;;;;7.20;2.00;;;10.80;99.90;;;;;;5154416;27;20551;-72
2023/05/03 09:11:33;;;;;;;4.82;1.65;;;10.90;99.90;;;;;;5154068;27;20051;-71
2023/05/03 09:14:14;;;;;;;4.82;2.00;;;10.90;99.90;;;;;;5154289;27;20074;-75
2023/05/03 09:16:43;;;;;;;3.45;1.60;;;11.00;99.90;;;;;;5154990;27;20768;-75
2023/05/03 09:19:11;;;;;;;5.70;1.70;;;11.00;99.90;;;;;;5118826;27;20551;-75
2023/05/03 09:21:41;;;;;;;6.50;2.13;;;10.90;99.90;;;;;;5135989;27;20051;-74
2023/05/03 09:24:18;;;;;;;6.22;1.88;;;11.00;99.90;;;;;;5119291;27;20058;-74
2023/05/03 09:26:46;;;;;;;7.07;1.90;;;11.00;99.90;;;;;;5151397;27;20047;-75
2023/05/03 09:29:29;;;;;;;2.65;1.73;;;11.00;99.90;;;;;;5154440;27;20698;-75
2023/05/03 09:31:59;;;;;;;4.40;1.80;;;11.10;99.90;;;;;;5153926;27;20088;-75
2023/05/03 09:34:25;;;;;;;2.53;1.63;;;11.10;99.90;;;;;;5135843;27;20054;-75
2023/05/03 09:36:51;;;;;;;4.32;2.05;;;11.10;99.90;;;;;;5135341;27;20054;-74
2023/05/03 09:39:18;;;;;;;6.32;2.10;;;11.20;99.90;;;;;;5151625;27;20042;-74
2023/05/03 09:41:44;;;;;;;4.45;2.08;;;11.20;99.90;;;;;;5132898;27;20482;-75
2023/05/03 09:44:11;;;;;;;;;;;11.30;99.90;;;;;;5115095;27;20551;-74
2023/05/03 09:46:37;;;;;;;3.03;2.08;;;11.40;99.90;;;;;;5115306;27;19927;-75
2023/05/03 09:49:03;;;;;;;2.63;1.60;;;11.50;99.90;;;;;;5132224;27;20185;-75
2023/05/03 09:51:33;;;;;;;3.80;1.67;;;11.60;99.90;;;;;;5132727;27;20654;-75
2023/05/03 09:53:59;;;;;;;6.82;1.90;;;11.60;99.90;;;;;;5114391;27;20047;-75
2023/05/03 09:56:25;;;;;;;8.88;2.30;;;11.70;99.90;;;;;;5149567;27;20085;-75
2023/05/03 09:58:54;;;;;;;5.10;1.70;;;11.70;99.90;;;;;;5137713;27;20043;-76
2023/05/03 10:01:23;;;;;;;4.38;1.73;;;11.90;99.90;;;;;;5132884;27;20090;-75
2023/05/03 10:03:50;;;;;;;5.05;2.20;;;12.10;99.90;;;;;;5132964;27;20126;-75
2023/05/03 10:06:25;;;;;;;3.40;1.67;;;12.20;99.90;;;;;;5113510;27;20039;-75
2023/05/03 10:08:56;;;;;;;5.68;1.90;;;12.30;99.90;;;;;;5114802;27;20403;-74
2023/05/03 10:11:25;;;;;;;4.85;1.52;;;12.40;99.90;;;;;;5131890;27;20130;-75
2023/05/03 10:13:51;;;;;;;2.88;1.52;;;12.50;99.90;;;;;;5132769;27;20043;-74
2023/05/03 10:16:25;;;;;;;3.67;2.10;;;12.50;99.90;;;;;;5114566;27;20050;-75
2023/05/03 10:18:58;;;;;;;4.85;1.50;;;12.60;99.90;;;;;;5150914;27;20051;-74
2023/05/03 10:21:34;;;;;;;4.25;2.13;;;12.80;99.90;;;;;;5152572;27;20046;-75
2023/05/03 10:24:15;;;;;;;2.95;1.67;;;13.00;99.90;;;;;;5121533;27;20472;-81
2023/05/03 10:26:44;;;;;;;5.70;1.73;;;13.10;99.50;;;;;;5130686;27;20053;-73
2023/05/03 10:29:32;;;;;;;4.65;2.05;;;13.20;97.70;;;;;;5141808;27;20050;-73
2023/05/03 10:31:58;;;;;;;9.10;1.80;;;13.10;95.30;;;;;;5144453;27;20043;-71
2023/05/03 10:34:31;;;;;;;5.07;1.70;;;13.10;98.70;;;;;;5126662;27;20035;-71
2023/05/03 10:36:59;;;;;;;6.95;2.17;;;13.00;98.10;;;;;;5131341;27;20519;-71
2023/05/03 10:39:27;;;;;;;5.55;2.20;;;13.00;98.40;;;;;;5137637;27;20047;-71
2023/05/03 10:42:02;;;;;;;3.95;2.25;;;13.00;97.60;;;;;;5124383;27;20051;-70
2023/05/03 10:44:36;;;;;;;5.28;2.17;;;13.00;97.80;;;;;;5151927;27;20059;-75
2023/05/03 10:47:39;;;;;;;6.65;2.10;;;13.10;98.60;;;;;;5136383;27;20058;-73
2023/05/03 10:50:10;;;;;;;4.25;2.20;;;13.20;97.60;;;;;;5067292;28;20075;-74
2023/05/03 10:52:42;;;;;;;3.78;1.90;;;13.30;98.60;;;;;;5122433;27;20046;-69
2023/05/03 10:55:13;;;;;;;3.35;1.67;;;13.40;98.50;;;;;;5152237;27;20099;-70
2023/05/03 10:57:41;;;;;;;6.68;2.15;;;13.50;97.00;;;;;;5151790;27;20098;-70
2023/05/03 11:00:38;;;;;;;6.03;2.28;;;13.50;95.90;;;;;;5134124;27;20151;-70
2023/05/03 11:03:09;;;;;;;3.60;1.67;;;13.60;92.50;;;;;;5140466;27;20483;-69
2023/05/03 11:05:36;;;;;;;2.30;2.08;;;13.50;95.40;;;;;;5152170;27;20074;-72
2023/05/03 11:08:16;;;;;;;3.92;1.85;;;13.40;96.20;;;;;;5121264;27;20043;-70
2023/05/03 11:10:44;;;;;;;3.63;1.60;;;13.40;95.70;;;;;;5144942;27;20103;-71
2023/05/03 11:13:10;;;;;;;4.72;2.53;;;13.50;97.00;;;;;;5134589;27;20078;-76
2023/05/03 11:15:37;;;;;;;7.25;1.77;;;13.60;97.60;;;;;;5152673;27;20098;-75
2023/05/03 11:18:08;;;;;;;28.67;2.85;;;13.70;98.00;;;;;;5138583;27;20493;-66
2023/05/03 11:20:35;;;;;;;7.95;2.10;;;13.90;96.80;;;;;;5131163;27;20086;-67
2023/05/03 11:23:01;;;;;;;2.05;1.50;;;14.10;96.90;;;;;;5137739;27;20038;-69
2023/05/03 11:25:27;;;;;;;8.18;2.63;;;14.30;96.50;;;;;;5151080;27;20035;-70
2023/05/03 11:27:53;;;;;;;;;;;14.70;96.50;;;;;;5132544;27;20402;-70
2023/05/03 11:30:19;;;;;;;4.18;1.90;;;15.10;94.80;;;;;;5131146;27;19927;-70
2023/05/03 11:32:45;;;;;;;3.15;1.45;;;15.70;96.40;;;;;;5131477;27;20082;-70
2023/05/03 11:35:14;;;;;;;;;;;16.40;96.10;;;;;;5130384;27;20404;-69
2023/05/03 11:37:41;;;;;;;2.50;1.60;;;17.20;82.30;;;;;;5144712;27;19922;-72
2023/05/03 11:40:15;;;;;;;4.13;1.80;;;17.60;91.70;;;;;;5152142;27;20111;-75
2023/05/03 11:42:55;;;;;;;3.85;1.90;;;17.80;89.80;;;;;;5114910;28;20055;-73
2023/05/03 11:45:23;;;;;;;4.03;1.70;;;17.90;87.30;;;;;;5141371;27;20047;-79
2023/05/03 11:47:50;;;;;;;2.95;1.80;;;18.00;88.40;;;;;;5122220;28;20043;-79
2023/05/03 11:50:17;;;;;;;6.45;2.22;;;18.20;85.80;;;;;;5134884;27;20066;-79
2023/05/03 11:52:43;;;;;;;3.92;1.70;;;18.30;82.70;;;;;;5145595;27;20490;-79
2023/05/03 11:55:10;;;;;;;3.78;1.73;;;18.50;81.00;;;;;;5118823;27;20116;-75
2023/05/03 11:57:37;;;;;;;3.08;1.58;;;18.60;78.40;;;;;;5146293;27;20372;-74
2023/05/03 12:00:16;;;;;;;7.13;1.90;;;18.90;76.20;;;;;;5137014;27;20047;-71
2023/05/03 12:02:43;;;;;;;3.67;1.70;;;19.40;68.20;;;;;;5136870;27;20047;-71
2023/05/03 12:05:08;;;;;;;5.18;1.98;;;19.90;74.40;;;;;;5155193;27;20110;-71
2023/05/03 12:07:36;;;;;;;4.43;1.73;;;20.30;73.80;;;;;;5123526;27;20046;-71
2023/05/03 12:10:15;;;;;;;2.17;1.60;;;20.90;73.60;;;;;;5135200;27;20054;-71
2023/05/03 12:12:51;;;;;;;5.38;1.65;;;21.40;66.70;;;;;;5134036;27;20042;-71
2023/05/03 12:15:26;;;;;;;4.28;1.85;;;22.00;67.30;;;;;;5129786;27;20102;-71
2023/05/03 12:17:56;;;;;;;2.97;1.58;;;22.40;66.20;;;;;;5143078;27;20065;-71
2023/05/03 12:20:22;;;;;;;3.42;1.60;;;22.80;67.80;;;;;;5134233;27;20043;-72
2023/05/03 12:22:50;;;;;;;2.30;1.45;;;23.30;66.70;;;;;;5150406;27;20070;-71
2023/05/03 12:25:16;;;;;;;4.72;1.60;;;23.60;63.50;;;;;;5124389;27;20079;-72
2023/05/03 12:27:41;;;;;;;2.72;1.60;;;24.00;61.00;;;;;;5146746;27;20070;-72
2023/05/03 12:30:09;;;;;;;5.15;1.75;;;24.60;60.00;;;;;;5148528;27;20054;-71
2023/05/03 12:32:37;;;;;;;4.65;1.60;;;25.30;58.50;;;;;;5133986;27;20164;-72
2023/05/03 12:35:04;;;;;;;5.07;1.70;;;25.90;57.10;;;;;;5134460;27;20500;-72
2023/05/03 12:37:31;;;;;;;2.40;1.45;;;26.40;55.00;;;;;;5134346;27;20123;-72
2023/05/03 12:39:56;;;;;;;1.77;1.30;;;26.80;53.80;;;;;;5137411;27;20050;-71
2023/05/03 12:42:22;;;;;;;4.68;1.63;;;27.10;52.50;;;;;;5153526;27;20050;-72
2023/05/03 12:44:48;;;;;;;3.20;1.77;;;27.20;50.30;;;;;;5152210;27;20035;-72
2023/05/03 12:47:14;;;;;;;3.22;1.90;;;27.00;48.20;;;;;;5133920;27;20050;-72
2023/05/03 12:49:40;;;;;;;2.47;1.60;;;26.80;48.50;;;;;;5142317;27;20086;-71
2023/05/03 12:52:05;;;;;;;3.97;1.65;;;26.90;48.10;;;;;;5133799;27;20135;-72
2023/05/03 12:54:33;;;;;;;5.18;1.80;;;27.30;47.70;;;;;;5118730;27;20489;-72
2023/05/03 12:57:02;;;;;;;3.40;1.90;;;27.60;47.00;;;;;;5143268;27;20125;-74